sensor_id;sensor_type;location;lat;lon;timestamp;temperature;humidity
65207;SHT31;58477;48.072;11.970;2023-05-07T00:00:16;12.39;89.25
65207;SHT31;58477;48.072;11.970;2023-05-07T00:02:47;12.12;90.18
65207;SHT31;58477;48.072;11.970;2023-05-07T00:05:13;12.10;90.49
65207;SHT31;58477;48.072;11.970;2023-05-07T00:07:38;12.24;89.77
65207;SHT31;58477;48.072;11.970;2023-05-07T00:10:04;12.35;89.18
65207;SHT31;58477;48.072;11.970;2023-05-07T00:12:32;12.43;88.64
65207;SHT31;58477;48.072;11.970;2023-05-07T00:15:00;12.49;88.40
65207;SHT31;58477;48.072;11.970;2023-05-07T00:17:25;12.45;88.34
65207;SHT31;58477;48.072;11.970;2023-05-07T00:19:50;12.43;88.49
65207;SHT31;58477;48.072;11.970;2023-05-07T00:22:16;12.41;88.83
65207;SHT31;58477;48.072;11.970;2023-05-07T00:24:41;12.43;88.94
65207;SHT31;58477;48.072;11.970;2023-05-07T00:27:07;12.46;88.76
65207;SHT31;58477;48.072;11.970;2023-05-07T00:29:33;12.42;88.77
65207;SHT31;58477;48.072;11.970;2023-05-07T00:31:58;12.41;88.78
65207;SHT31;58477;48.072;11.970;2023-05-07T00:34:23;12.39;88.84
65207;SHT31;58477;48.072;11.970;2023-05-07T00:36:49;12.38;88.76
65207;SHT31;58477;48.072;11.970;2023-05-07T00:39:14;12.32;88.96
65207;SHT31;58477;48.072;11.970;2023-05-07T00:41:40;12.22;89.46
65207;SHT31;58477;48.072;11.970;2023-05-07T00:44:05;12.02;90.12
65207;SHT31;58477;48.072;11.970;2023-05-07T00:46:32;11.95;90.37
65207;SHT31;58477;48.072;11.970;2023-05-07T00:48:58;12.01;90.08
65207;SHT31;58477;48.072;11.970;2023-05-07T00:51:25;11.91;90.48
65207;SHT31;58477;48.072;11.970;2023-05-07T00:53:52;11.91;90.55
65207;SHT31;58477;48.072;11.970;2023-05-07T00:56:17;11.91;90.61
65207;SHT31;58477;48.072;11.970;2023-05-07T00:58:43;11.74;91.12
65207;SHT31;58477;48.072;11.970;2023-05-07T01:01:08;11.67;91.57
65207;SHT31;58477;48.072;11.970;2023-05-07T01:03:34;11.75;91.66
65207;SHT31;58477;48.072;11.970;2023-05-07T01:06:00;11.56;91.78
65207;SHT31;58477;48.072;11.970;2023-05-07T01:08:27;11.64;91.79
65207;SHT31;58477;48.072;11.970;2023-05-07T01:10:56;11.81;91.24
65207;SHT31;58477;48.072;11.970;2023-05-07T01:13:23;11.57;91.93
65207;SHT31;58477;48.072;11.970;2023-05-07T01:15:49;11.46;92.52
65207;SHT31;58477;48.072;11.970;2023-05-07T01:18:15;11.53;92.72
65207;SHT31;58477;48.072;11.970;2023-05-07T01:20:41;11.57;92.36
65207;SHT31;58477;48.072;11.970;2023-05-07T01:23:07;11.56;92.57
65207;SHT31;58477;48.072;11.970;2023-05-07T01:25:32;11.50;92.76
65207;SHT31;58477;48.072;11.970;2023-05-07T01:28:00;11.40;93.06
65207;SHT31;58477;48.072;11.970;2023-05-07T01:30:29;11.47;93.12
65207;SHT31;58477;48.072;11.970;2023-05-07T01:33:00;11.50;92.77
65207;SHT31;58477;48.072;11.970;2023-05-07T01:35:32;11.60;92.41
65207;SHT31;58477;48.072;11.970;2023-05-07T01:37:57;11.63;91.93
65207;SHT31;58477;48.072;11.970;2023-05-07T01:40:24;11.36;92.75
65207;SHT31;58477;48.072;11.970;2023-05-07T01:42:51;11.24;92.63
65207;SHT31;58477;48.072;11.970;2023-05-07T01:45:16;10.91;93.67
65207;SHT31;58477;48.072;11.970;2023-05-07T01:47:42;10.83;94.31
65207;SHT31;58477;48.072;11.970;2023-05-07T01:50:08;10.91;94.57
65207;SHT31;58477;48.072;11.970;2023-05-07T01:52:37;10.89;94.72
65207;SHT31;58477;48.072;11.970;2023-05-07T01:55:04;10.91;94.78
65207;SHT31;58477;48.072;11.970;2023-05-07T01:57:30;11.06;94.60
65207;SHT31;58477;48.072;11.970;2023-05-07T01:59:56;11.12;94.44
65207;SHT31;58477;48.072;11.970;2023-05-07T02:02:21;11.26;93.90
65207;SHT31;58477;48.072;11.970;2023-05-07T02:04:47;11.22;94.08
65207;SHT31;58477;48.072;11.970;2023-05-07T02:07:14;11.13;94.69
65207;SHT31;58477;48.072;11.970;2023-05-07T02:09:39;11.10;94.69
65207;SHT31;58477;48.072;11.970;2023-05-07T02:12:05;11.23;94.26
65207;SHT31;58477;48.072;11.970;2023-05-07T02:14:30;11.24;93.67
65207;SHT31;58477;48.072;11.970;2023-05-07T02:16:56;11.22;93.72
65207;SHT31;58477;48.072;11.970;2023-05-07T02:19:22;11.24;93.79
65207;SHT31;58477;48.072;11.970;2023-05-07T02:21:47;11.17;94.07
65207;SHT31;58477;48.072;11.970;2023-05-07T02:24:13;11.16;94.22
65207;SHT31;58477;48.072;11.970;2023-05-07T02:26:40;11.24;93.83
65207;SHT31;58477;48.072;11.970;2023-05-07T02:29:06;11.23;94.11
65207;SHT31;58477;48.072;11.970;2023-05-07T02:31:31;11.24;93.99
65207;SHT31;58477;48.072;11.970;2023-05-07T02:34:00;11.23;93.96
65207;SHT31;58477;48.072;11.970;2023-05-07T02:36:25;11.15;94.01
65207;SHT31;58477;48.072;11.970;2023-05-07T02:39:02;11.10;94.29
65207;SHT31;58477;48.072;11.970;2023-05-07T02:41:27;10.97;94.55
65207;SHT31;58477;48.072;11.970;2023-05-07T02:43:53;10.99;94.62
65207;SHT31;58477;48.072;11.970;2023-05-07T02:46:20;10.95;94.78
65207;SHT31;58477;48.072;11.970;2023-05-07T02:48:50;10.95;95.12
65207;SHT31;58477;48.072;11.970;2023-05-07T02:51:20;10.86;94.97
65207;SHT31;58477;48.072;11.970;2023-05-07T02:53:46;10.77;95.50
65207;SHT31;58477;48.072;11.970;2023-05-07T02:56:11;10.69;95.78
65207;SHT31;58477;48.072;11.970;2023-05-07T02:58:37;10.68;96.00
65207;SHT31;58477;48.072;11.970;2023-05-07T03:01:05;10.58;95.92
65207;SHT31;58477;48.072;11.970;2023-05-07T03:03:38;10.69;95.83
65207;SHT31;58477;48.072;11.970;2023-05-07T03:06:03;10.75;95.99
65207;SHT31;58477;48.072;11.970;2023-05-07T03:08:28;10.80;95.93
65207;SHT31;58477;48.072;11.970;2023-05-07T03:10:54;10.79;95.80
65207;SHT31;58477;48.072;11.970;2023-05-07T03:13:19;10.79;95.79
65207;SHT31;58477;48.072;11.970;2023-05-07T03:15:45;10.80;95.71
65207;SHT31;58477;48.072;11.970;2023-05-07T03:18:10;10.77;95.71
65207;SHT31;58477;48.072;11.970;2023-05-07T03:20:36;10.75;95.79
65207;SHT31;58477;48.072;11.970;2023-05-07T03:23:02;10.63;95.97
65207;SHT31;58477;48.072;11.970;2023-05-07T03:25:28;10.65;96.11
65207;SHT31;58477;48.072;11.970;2023-05-07T03:27:55;10.62;95.97
65207;SHT31;58477;48.072;11.970;2023-05-07T03:30:26;10.61;96.07
65207;SHT31;58477;48.072;11.970;2023-05-07T03:32:51;10.62;96.32
65207;SHT31;58477;48.072;11.970;2023-05-07T03:35:17;10.76;95.78
65207;SHT31;58477;48.072;11.970;2023-05-07T03:37:42;10.82;95.53
65207;SHT31;58477;48.072;11.970;2023-05-07T03:40:10;10.80;95.27
65207;SHT31;58477;48.072;11.970;2023-05-07T03:42:42;10.86;94.89
65207;SHT31;58477;48.072;11.970;2023-05-07T03:45:09;10.53;95.21
65207;SHT31;58477;48.072;11.970;2023-05-07T03:47:35;10.34;96.00
65207;SHT31;58477;48.072;11.970;2023-05-07T03:50:01;10.39;96.09
65207;SHT31;58477;48.072;11.970;2023-05-07T03:52:26;10.45;96.12
65207;SHT31;58477;48.072;11.970;2023-05-07T03:54:54;10.49;96.25
65207;SHT31;58477;48.072;11.970;2023-05-07T03:57:20;10.37;96.44
65207;SHT31;58477;48.072;11.970;2023-05-07T03:59:46;10.42;96.47
65207;SHT31;58477;48.072;11.970;2023-05-07T04:02:12;10.51;96.21
65207;SHT31;58477;48.072;11.970;2023-05-07T04:04:37;10.58;96.32
65207;SHT31;58477;48.072;11.970;2023-05-07T04:07:03;10.59;96.01
65207;SHT31;58477;48.072;11.970;2023-05-07T04:09:30;10.56;96.04
65207;SHT31;58477;48.072;11.970;2023-05-07T04:11:56;10.68;96.10
65207;SHT31;58477;48.072;11.970;2023-05-07T04:14:22;10.55;95.87
65207;SHT31;58477;48.072;11.970;2023-05-07T04:16:48;10.51;96.04
65207;SHT31;58477;48.072;11.970;2023-05-07T04:19:13;10.56;96.01
65207;SHT31;58477;48.072;11.970;2023-05-07T04:21:38;10.69;95.85
65207;SHT31;58477;48.072;11.970;2023-05-07T04:24:05;10.79;96.22
65207;SHT31;58477;48.072;11.970;2023-05-07T04:26:31;10.91;95.64
65207;SHT31;58477;48.072;11.970;2023-05-07T04:28:57;10.96;95.53
65207;SHT31;58477;48.072;11.970;2023-05-07T04:31:27;10.97;95.36
65207;SHT31;58477;48.072;11.970;2023-05-07T04:33:53;11.17;95.00
65207;SHT31;58477;48.072;11.970;2023-05-07T04:36:19;11.26;94.37
65207;SHT31;58477;48.072;11.970;2023-05-07T04:38:50;11.33;94.44
65207;SHT31;58477;48.072;11.970;2023-05-07T04:41:17;11.41;94.05
65207;SHT31;58477;48.072;11.970;2023-05-07T04:43:42;11.53;93.80
65207;SHT31;58477;48.072;11.970;2023-05-07T04:46:10;11.61;93.45
65207;SHT31;58477;48.072;11.970;2023-05-07T04:48:35;11.70;93.50
65207;SHT31;58477;48.072;11.970;2023-05-07T04:51:03;11.84;92.85
65207;SHT31;58477;48.072;11.970;2023-05-07T04:53:29;11.98;92.41
65207;SHT31;58477;48.072;11.970;2023-05-07T04:55:56;11.90;92.45
65207;SHT31;58477;48.072;11.970;2023-05-07T04:58:23;11.92;92.60
65207;SHT31;58477;48.072;11.970;2023-05-07T05:00:49;12.04;92.44
65207;SHT31;58477;48.072;11.970;2023-05-07T05:03:14;12.20;92.32
65207;SHT31;58477;48.072;11.970;2023-05-07T05:05:40;12.34;92.12
65207;SHT31;58477;48.072;11.970;2023-05-07T05:08:06;12.55;91.88
65207;SHT31;58477;48.072;11.970;2023-05-07T05:10:34;12.92;90.51
65207;SHT31;58477;48.072;11.970;2023-05-07T05:13:00;13.03;89.78
65207;SHT31;58477;48.072;11.970;2023-05-07T05:15:26;13.16;89.53
65207;SHT31;58477;48.072;11.970;2023-05-07T05:17:51;13.62;88.38
65207;SHT31;58477;48.072;11.970;2023-05-07T05:20:17;13.81;87.24
65207;SHT31;58477;48.072;11.970;2023-05-07T05:22:42;13.62;87.94
65207;SHT31;58477;48.072;11.970;2023-05-07T05:25:09;13.71;87.60
65207;SHT31;58477;48.072;11.970;2023-05-07T05:27:35;14.12;86.88
65207;SHT31;58477;48.072;11.970;2023-05-07T05:30:01;14.19;86.88
65207;SHT31;58477;48.072;11.970;2023-05-07T05:32:27;14.84;85.27
65207;SHT31;58477;48.072;11.970;2023-05-07T05:34:55;14.90;84.45
65207;SHT31;58477;48.072;11.970;2023-05-07T05:37:21;14.91;85.03
65207;SHT31;58477;48.072;11.970;2023-05-07T05:39:48;15.57;83.75
65207;SHT31;58477;48.072;11.970;2023-05-07T05:42:14;15.37;83.45
65207;SHT31;58477;48.072;11.970;2023-05-07T05:44:40;16.22;82.78
65207;SHT31;58477;48.072;11.970;2023-05-07T05:47:05;16.64;81.40
65207;SHT31;58477;48.072;11.970;2023-05-07T05:49:31;16.93;80.18
65207;SHT31;58477;48.072;11.970;2023-05-07T05:51:57;17.18;80.07
65207;SHT31;58477;48.072;11.970;2023-05-07T05:54:24;18.34;76.72
65207;SHT31;58477;48.072;11.970;2023-05-07T05:56:50;18.37;75.83
65207;SHT31;58477;48.072;11.970;2023-05-07T05:59:15;19.14;73.95
65207;SHT31;58477;48.072;11.970;2023-05-07T06:01:41;19.21;72.37
65207;SHT31;58477;48.072;11.970;2023-05-07T06:04:06;19.17;73.11
65207;SHT31;58477;48.072;11.970;2023-05-07T06:06:33;19.17;74.17
65207;SHT31;58477;48.072;11.970;2023-05-07T06:08:59;19.76;71.54
65207;SHT31;58477;48.072;11.970;2023-05-07T06:11:32;20.33;69.89
65207;SHT31;58477;48.072;11.970;2023-05-07T06:13:58;19.44;72.42
65207;SHT31;58477;48.072;11.970;2023-05-07T06:16:24;19.21;73.52
65207;SHT31;58477;48.072;11.970;2023-05-07T06:18:50;19.39;73.64
65207;SHT31;58477;48.072;11.970;2023-05-07T06:21:16;19.45;73.50
65207;SHT31;58477;48.072;11.970;2023-05-07T06:23:41;19.63;72.58
65207;SHT31;58477;48.072;11.970;2023-05-07T06:26:07;19.96;71.76
65207;SHT31;58477;48.072;11.970;2023-05-07T06:28:38;19.76;72.26
65207;SHT31;58477;48.072;11.970;2023-05-07T06:31:18;19.83;73.62
65207;SHT31;58477;48.072;11.970;2023-05-07T06:33:51;19.95;72.61
65207;SHT31;58477;48.072;11.970;2023-05-07T06:36:17;19.76;72.62
65207;SHT31;58477;48.072;11.970;2023-05-07T06:38:44;19.48;72.77
65207;SHT31;58477;48.072;11.970;2023-05-07T06:41:09;21.21;69.90
65207;SHT31;58477;48.072;11.970;2023-05-07T06:43:37;20.85;70.80
65207;SHT31;58477;48.072;11.970;2023-05-07T06:46:21;21.24;68.48
65207;SHT31;58477;48.072;11.970;2023-05-07T06:48:47;21.04;70.25
65207;SHT31;58477;48.072;11.970;2023-05-07T06:51:13;21.67;67.93
65207;SHT31;58477;48.072;11.970;2023-05-07T06:53:38;21.30;68.13
65207;SHT31;58477;48.072;11.970;2023-05-07T06:56:05;21.76;67.28
65207;SHT31;58477;48.072;11.970;2023-05-07T06:58:30;21.22;69.09
65207;SHT31;58477;48.072;11.970;2023-05-07T07:00:56;21.30;68.73
65207;SHT31;58477;48.072;11.970;2023-05-07T07:03:22;21.39;68.85
65207;SHT31;58477;48.072;11.970;2023-05-07T07:05:51;21.12;69.17
65207;SHT31;58477;48.072;11.970;2023-05-07T07:08:17;20.22;72.36
65207;SHT31;58477;48.072;11.970;2023-05-07T07:10:43;22.44;68.17
65207;SHT31;58477;48.072;11.970;2023-05-07T07:13:09;22.61;66.08
65207;SHT31;58477;48.072;11.970;2023-05-07T07:15:35;22.78;66.39
65207;SHT31;58477;48.072;11.970;2023-05-07T07:18:00;22.03;67.84
65207;SHT31;58477;48.072;11.970;2023-05-07T07:20:26;21.51;70.87
65207;SHT31;58477;48.072;11.970;2023-05-07T07:22:51;21.45;70.45
65207;SHT31;58477;48.072;11.970;2023-05-07T07:25:17;23.26;65.60
65207;SHT31;58477;48.072;11.970;2023-05-07T07:27:43;23.21;64.33
65207;SHT31;58477;48.072;11.970;2023-05-07T07:30:09;23.58;64.36
65207;SHT31;58477;48.072;11.970;2023-05-07T07:32:37;23.95;63.73
65207;SHT31;58477;48.072;11.970;2023-05-07T07:35:03;24.23;63.91
65207;SHT31;58477;48.072;11.970;2023-05-07T07:37:30;24.67;63.37
65207;SHT31;58477;48.072;11.970;2023-05-07T07:39:56;24.95;61.38
65207;SHT31;58477;48.072;11.970;2023-05-07T07:42:21;24.67;60.86
65207;SHT31;58477;48.072;11.970;2023-05-07T07:44:47;23.83;62.28
65207;SHT31;58477;48.072;11.970;2023-05-07T07:47:14;23.88;63.69
65207;SHT31;58477;48.072;11.970;2023-05-07T07:49:41;23.98;63.58
65207;SHT31;58477;48.072;11.970;2023-05-07T07:52:08;23.29;65.38
65207;SHT31;58477;48.072;11.970;2023-05-07T07:54:36;23.08;65.94
65207;SHT31;58477;48.072;11.970;2023-05-07T07:57:03;22.51;67.67
65207;SHT31;58477;48.072;11.970;2023-05-07T07:59:31;22.71;65.96
65207;SHT31;58477;48.072;11.970;2023-05-07T08:01:57;22.73;66.05
65207;SHT31;58477;48.072;11.970;2023-05-07T08:04:25;22.84;65.93
65207;SHT31;58477;48.072;11.970;2023-05-07T08:06:51;23.15;65.01
65207;SHT31;58477;48.072;11.970;2023-05-07T08:09:19;23.89;63.53
65207;SHT31;58477;48.072;11.970;2023-05-07T08:11:46;24.17;62.23
65207;SHT31;58477;48.072;11.970;2023-05-07T08:14:12;23.37;64.39
65207;SHT31;58477;48.072;11.970;2023-05-07T08:16:38;23.78;63.10
65207;SHT31;58477;48.072;11.970;2023-05-07T08:19:04;23.96;63.26
65207;SHT31;58477;48.072;11.970;2023-05-07T08:21:29;24.53;61.92
65207;SHT31;58477;48.072;11.970;2023-05-07T08:23:56;24.46;62.52
65207;SHT31;58477;48.072;11.970;2023-05-07T08:26:22;24.92;60.56
65207;SHT31;58477;48.072;11.970;2023-05-07T08:28:48;24.84;59.97
65207;SHT31;58477;48.072;11.970;2023-05-07T08:31:13;25.62;59.07
65207;SHT31;58477;48.072;11.970;2023-05-07T08:33:40;25.31;59.77
65207;SHT31;58477;48.072;11.970;2023-05-07T08:36:06;25.12;58.86
65207;SHT31;58477;48.072;11.970;2023-05-07T08:38:32;25.10;59.13
65207;SHT31;58477;48.072;11.970;2023-05-07T08:40:57;25.61;59.49
65207;SHT31;58477;48.072;11.970;2023-05-07T08:43:26;25.34;59.70
65207;SHT31;58477;48.072;11.970;2023-05-07T08:45:53;24.56;59.78
65207;SHT31;58477;48.072;11.970;2023-05-07T08:48:23;25.53;58.08
65207;SHT31;58477;48.072;11.970;2023-05-07T08:50:57;25.34;58.74
65207;SHT31;58477;48.072;11.970;2023-05-07T08:53:22;25.53;57.66
65207;SHT31;58477;48.072;11.970;2023-05-07T08:55:49;24.78;59.21
65207;SHT31;58477;48.072;11.970;2023-05-07T08:58:16;24.94;59.29
65207;SHT31;58477;48.072;11.970;2023-05-07T09:00:42;25.78;57.93
65207;SHT31;58477;48.072;11.970;2023-05-07T09:03:08;25.35;58.00
65207;SHT31;58477;48.072;11.970;2023-05-07T09:05:34;25.61;56.49
65207;SHT31;58477;48.072;11.970;2023-05-07T09:08:02;25.90;57.33
65207;SHT31;58477;48.072;11.970;2023-05-07T09:10:29;24.99;60.07
65207;SHT31;58477;48.072;11.970;2023-05-07T09:12:55;25.19;58.44
65207;SHT31;58477;48.072;11.970;2023-05-07T09:15:21;25.27;58.43
65207;SHT31;58477;48.072;11.970;2023-05-07T09:17:46;24.75;57.53
65207;SHT31;58477;48.072;11.970;2023-05-07T09:20:12;24.71;58.08
65207;SHT31;58477;48.072;11.970;2023-05-07T09:22:39;25.24;55.04
65207;SHT31;58477;48.072;11.970;2023-05-07T09:25:08;25.52;56.13
65207;SHT31;58477;48.072;11.970;2023-05-07T09:27:37;26.23;55.40
65207;SHT31;58477;48.072;11.970;2023-05-07T09:30:04;25.46;56.08
65207;SHT31;58477;48.072;11.970;2023-05-07T09:32:35;26.30;54.26
65207;SHT31;58477;48.072;11.970;2023-05-07T09:35:01;26.04;54.56
65207;SHT31;58477;48.072;11.970;2023-05-07T09:37:30;26.44;53.51
65207;SHT31;58477;48.072;11.970;2023-05-07T09:39:56;26.87;51.51
65207;SHT31;58477;48.072;11.970;2023-05-07T09:42:26;26.24;53.08
65207;SHT31;58477;48.072;11.970;2023-05-07T09:44:55;25.73;54.58
65207;SHT31;58477;48.072;11.970;2023-05-07T09:47:24;25.72;54.97
65207;SHT31;58477;48.072;11.970;2023-05-07T09:49:56;25.61;56.37
65207;SHT31;58477;48.072;11.970;2023-05-07T09:52:23;25.49;55.99
65207;SHT31;58477;48.072;11.970;2023-05-07T09:54:53;26.10;53.86
65207;SHT31;58477;48.072;11.970;2023-05-07T09:57:23;25.59;54.47
65207;SHT31;58477;48.072;11.970;2023-05-07T09:59:56;25.31;54.98
65207;SHT31;58477;48.072;11.970;2023-05-07T10:02:23;25.10;53.42
65207;SHT31;58477;48.072;11.970;2023-05-07T10:04:53;24.75;53.88
65207;SHT31;58477;48.072;11.970;2023-05-07T10:07:24;25.10;54.92
65207;SHT31;58477;48.072;11.970;2023-05-07T10:09:54;25.73;54.34
65207;SHT31;58477;48.072;11.970;2023-05-07T10:12:28;25.31;54.37
65207;SHT31;58477;48.072;11.970;2023-05-07T10:14:55;25.96;54.80
65207;SHT31;58477;48.072;11.970;2023-05-07T10:17:23;26.13;53.92
65207;SHT31;58477;48.072;11.970;2023-05-07T10:19:49;26.07;54.32
65207;SHT31;58477;48.072;11.970;2023-05-07T10:22:16;25.90;53.19
65207;SHT31;58477;48.072;11.970;2023-05-07T10:24:46;26.63;52.11
65207;SHT31;58477;48.072;11.970;2023-05-07T10:27:17;26.23;53.32
65207;SHT31;58477;48.072;11.970;2023-05-07T10:32:40;26.29;55.54
65207;SHT31;58477;48.072;11.970;2023-05-07T10:35:26;25.32;53.15
65207;SHT31;58477;48.072;11.970;2023-05-07T10:37:53;26.06;52.03
65207;SHT31;58477;48.072;11.970;2023-05-07T10:40:21;26.58;50.25
65207;SHT31;58477;48.072;11.970;2023-05-07T10:45:21;25.85;53.61
65207;SHT31;58477;48.072;11.970;2023-05-07T10:48:12;25.32;53.65
65207;SHT31;58477;48.072;11.970;2023-05-07T10:50:40;24.87;55.43
65207;SHT31;58477;48.072;11.970;2023-05-07T10:58:47;25.14;53.66
65207;SHT31;58477;48.072;11.970;2023-05-07T11:04:15;25.14;52.82
65207;SHT31;58477;48.072;11.970;2023-05-07T11:17:56;24.17;52.87
65207;SHT31;58477;48.072;11.970;2023-05-07T11:26:13;23.68;55.12
65207;SHT31;58477;48.072;11.970;2023-05-07T11:28:41;24.36;55.55
65207;SHT31;58477;48.072;11.970;2023-05-07T11:31:08;23.63;55.42
65207;SHT31;58477;48.072;11.970;2023-05-07T11:33:34;24.13;55.65
65207;SHT31;58477;48.072;11.970;2023-05-07T11:36:04;24.10;54.70
65207;SHT31;58477;48.072;11.970;2023-05-07T11:38:35;23.98;53.62
65207;SHT31;58477;48.072;11.970;2023-05-07T11:41:02;23.96;53.85
65207;SHT31;58477;48.072;11.970;2023-05-07T11:43:30;23.72;53.91
65207;SHT31;58477;48.072;11.970;2023-05-07T11:46:05;23.86;53.74
65207;SHT31;58477;48.072;11.970;2023-05-07T11:48:31;23.65;53.82
65207;SHT31;58477;48.072;11.970;2023-05-07T11:51:02;23.93;53.09
65207;SHT31;58477;48.072;11.970;2023-05-07T11:53:35;24.39;53.01
65207;SHT31;58477;48.072;11.970;2023-05-07T11:56:06;24.47;53.21
65207;SHT31;58477;48.072;11.970;2023-05-07T11:58:32;24.44;53.46
65207;SHT31;58477;48.072;11.970;2023-05-07T12:00:58;24.20;53.34
65207;SHT31;58477;48.072;11.970;2023-05-07T12:03:23;24.06;55.62
65207;SHT31;58477;48.072;11.970;2023-05-07T12:05:48;23.58;54.30
65207;SHT31;58477;48.072;11.970;2023-05-07T12:08:15;23.46;53.88
65207;SHT31;58477;48.072;11.970;2023-05-07T12:10:41;23.11;55.26
65207;SHT31;58477;48.072;11.970;2023-05-07T12:13:17;23.58;54.42
65207;SHT31;58477;48.072;11.970;2023-05-07T12:15:43;24.30;53.76
65207;SHT31;58477;48.072;11.970;2023-05-07T12:18:10;24.44;52.30
65207;SHT31;58477;48.072;11.970;2023-05-07T12:20:36;24.60;52.52
65207;SHT31;58477;48.072;11.970;2023-05-07T12:23:02;24.00;53.22
65207;SHT31;58477;48.072;11.970;2023-05-07T12:25:32;24.74;50.70
65207;SHT31;58477;48.072;11.970;2023-05-07T12:27:57;24.49;53.91
65207;SHT31;58477;48.072;11.970;2023-05-07T12:30:25;24.33;51.52
65207;SHT31;58477;48.072;11.970;2023-05-07T12:32:54;24.61;51.09
65207;SHT31;58477;48.072;11.970;2023-05-07T12:35:27;24.16;51.07
65207;SHT31;58477;48.072;11.970;2023-05-07T12:37:56;23.42;53.56
65207;SHT31;58477;48.072;11.970;2023-05-07T12:40:24;24.08;52.15
65207;SHT31;58477;48.072;11.970;2023-05-07T12:42:52;24.09;52.26
65207;SHT31;58477;48.072;11.970;2023-05-07T12:45:19;24.10;53.03
65207;SHT31;58477;48.072;11.970;2023-05-07T12:47:45;23.54;52.36
65207;SHT31;58477;48.072;11.970;2023-05-07T12:50:11;23.52;51.96
65207;SHT31;58477;48.072;11.970;2023-05-07T12:52:37;23.44;52.38
65207;SHT31;58477;48.072;11.970;2023-05-07T12:55:05;23.78;53.57
65207;SHT31;58477;48.072;11.970;2023-05-07T12:57:37;24.17;53.68
65207;SHT31;58477;48.072;11.970;2023-05-07T13:00:04;24.02;52.49
65207;SHT31;58477;48.072;11.970;2023-05-07T13:02:33;24.00;53.10
65207;SHT31;58477;48.072;11.970;2023-05-07T13:04:59;23.39;53.38
65207;SHT31;58477;48.072;11.970;2023-05-07T13:07:25;23.28;54.95
65207;SHT31;58477;48.072;11.970;2023-05-07T13:09:53;23.66;54.90
65207;SHT31;58477;48.072;11.970;2023-05-07T13:12:19;23.88;53.52
65207;SHT31;58477;48.072;11.970;2023-05-07T13:14:45;23.75;54.15
65207;SHT31;58477;48.072;11.970;2023-05-07T13:17:10;23.07;54.58
65207;SHT31;58477;48.072;11.970;2023-05-07T13:19:35;23.42;55.31
65207;SHT31;58477;48.072;11.970;2023-05-07T13:22:02;23.51;55.07
65207;SHT31;58477;48.072;11.970;2023-05-07T13:24:28;23.15;55.10
65207;SHT31;58477;48.072;11.970;2023-05-07T13:26:53;23.25;55.21
65207;SHT31;58477;48.072;11.970;2023-05-07T13:29:19;23.14;55.91
65207;SHT31;58477;48.072;11.970;2023-05-07T13:31:44;23.41;55.08
65207;SHT31;58477;48.072;11.970;2023-05-07T13:34:10;23.55;54.71
65207;SHT31;58477;48.072;11.970;2023-05-07T13:36:35;23.16;54.73
65207;SHT31;58477;48.072;11.970;2023-05-07T13:39:04;23.04;56.24
65207;SHT31;58477;48.072;11.970;2023-05-07T13:41:31;22.60;56.96
65207;SHT31;58477;48.072;11.970;2023-05-07T13:43:56;22.60;56.80
65207;SHT31;58477;48.072;11.970;2023-05-07T13:46:22;22.81;57.76
65207;SHT31;58477;48.072;11.970;2023-05-07T13:48:47;22.75;55.05
65207;SHT31;58477;48.072;11.970;2023-05-07T13:51:12;22.91;55.52
65207;SHT31;58477;48.072;11.970;2023-05-07T13:53:38;22.88;56.00
65207;SHT31;58477;48.072;11.970;2023-05-07T13:56:04;22.59;55.71
65207;SHT31;58477;48.072;11.970;2023-05-07T13:58:30;22.57;56.01
65207;SHT31;58477;48.072;11.970;2023-05-07T14:00:55;22.78;57.02
65207;SHT31;58477;48.072;11.970;2023-05-07T14:03:21;22.73;57.02
65207;SHT31;58477;48.072;11.970;2023-05-07T14:05:47;22.63;56.68
65207;SHT31;58477;48.072;11.970;2023-05-07T14:08:12;22.56;57.62
65207;SHT31;58477;48.072;11.970;2023-05-07T14:10:39;22.59;57.23
65207;SHT31;58477;48.072;11.970;2023-05-07T14:13:05;22.21;57.10
65207;SHT31;58477;48.072;11.970;2023-05-07T14:15:31;21.69;58.48
65207;SHT31;58477;48.072;11.970;2023-05-07T14:17:58;21.75;57.90
65207;SHT31;58477;48.072;11.970;2023-05-07T14:20:24;21.81;58.72
65207;SHT31;58477;48.072;11.970;2023-05-07T14:22:50;21.76;57.89
65207;SHT31;58477;48.072;11.970;2023-05-07T14:25:15;22.17;57.34
65207;SHT31;58477;48.072;11.970;2023-05-07T14:27:44;22.21;57.42
65207;SHT31;58477;48.072;11.970;2023-05-07T14:30:10;22.37;56.44
65207;SHT31;58477;48.072;11.970;2023-05-07T14:32:36;22.06;58.72
65207;SHT31;58477;48.072;11.970;2023-05-07T14:35:01;21.89;59.06
65207;SHT31;58477;48.072;11.970;2023-05-07T14:37:27;22.05;60.15
65207;SHT31;58477;48.072;11.970;2023-05-07T14:39:53;22.06;59.90
65207;SHT31;58477;48.072;11.970;2023-05-07T14:42:18;22.07;57.35
65207;SHT31;58477;48.072;11.970;2023-05-07T14:44:45;22.35;57.10
65207;SHT31;58477;48.072;11.970;2023-05-07T14:47:11;22.19;58.32
65207;SHT31;58477;48.072;11.970;2023-05-07T14:49:37;22.30;58.42
65207;SHT31;58477;48.072;11.970;2023-05-07T14:52:03;22.06;57.99
65207;SHT31;58477;48.072;11.970;2023-05-07T14:54:33;22.10;57.62
65207;SHT31;58477;48.072;11.970;2023-05-07T14:56:59;22.21;58.16
65207;SHT31;58477;48.072;11.970;2023-05-07T14:59:25;22.07;58.97
65207;SHT31;58477;48.072;11.970;2023-05-07T15:01:50;21.67;57.78
65207;SHT31;58477;48.072;11.970;2023-05-07T15:04:16;21.58;59.25
65207;SHT31;58477;48.072;11.970;2023-05-07T15:06:42;21.61;58.61
65207;SHT31;58477;48.072;11.970;2023-05-07T15:09:07;21.72;58.32
65207;SHT31;58477;48.072;11.970;2023-05-07T15:11:34;21.44;59.25
65207;SHT31;58477;48.072;11.970;2023-05-07T15:14:00;21.25;59.96
65207;SHT31;58477;48.072;11.970;2023-05-07T15:16:25;21.22;59.90
65207;SHT31;58477;48.072;11.970;2023-05-07T15:18:50;21.18;60.14
65207;SHT31;58477;48.072;11.970;2023-05-07T15:21:16;21.18;59.92
65207;SHT31;58477;48.072;11.970;2023-05-07T15:23:42;21.30;60.90
65207;SHT31;58477;48.072;11.970;2023-05-07T15:26:09;21.28;59.91
65207;SHT31;58477;48.072;11.970;2023-05-07T15:28:35;20.97;61.12
65207;SHT31;58477;48.072;11.970;2023-05-07T15:31:00;20.98;60.21
65207;SHT31;58477;48.072;11.970;2023-05-07T15:33:26;20.67;61.12
65207;SHT31;58477;48.072;11.970;2023-05-07T15:35:51;20.78;60.86
65207;SHT31;58477;48.072;11.970;2023-05-07T15:38:17;20.87;61.29
65207;SHT31;58477;48.072;11.970;2023-05-07T15:40:42;20.91;61.08
65207;SHT31;58477;48.072;11.970;2023-05-07T15:43:09;20.84;60.84